sensor_id;sensor_type;location;lat;lon;timestamp;pressure;altitude;pressure_sealevel;temperature;humidity
22647;BME280;11490;42.726;23.268;2022-11-12T00:00:29;96587.69;;;10.09;96.76
22647;BME280;11490;42.726;23.268;2022-11-12T00:02:55;96608.28;;;10.21;95.83
22647;BME280;11490;42.726;23.268;2022-11-12T00:05:21;96585.34;;;9.86;96.98
22647;BME280;11490;42.726;23.268;2022-11-12T00:07:46;96581.34;;;9.55;99.14
22647;BME280;11490;42.726;23.268;2022-11-12T00:10:11;96575.72;;;9.85;99.14
22647;BME280;11490;42.726;23.268;2022-11-12T00:12:37;96571.28;;;10.05;97.42
22647;BME280;11490;42.726;23.268;2022-11-12T00:15:02;96571.72;;;10.15;95.81
22647;BME280;11490;42.726;23.268;2022-11-12T00:17:28;96545.03;;;10.02;94.88
22647;BME280;11490;42.726;23.268;2022-11-12T00:19:53;96558.16;;;10.03;94.39
22647;BME280;11490;42.726;23.268;2022-11-12T00:22:19;96561.03;;;10.02;94.94
22647;BME280;11490;42.726;23.268;2022-11-12T00:24:45;96571.47;;;9.97;95.49
22647;BME280;11490;42.726;23.268;2022-11-12T00:27:10;96584.63;;;10.05;95.01
22647;BME280;11490;42.726;23.268;2022-11-12T00:29:36;96583.16;;;9.96;95.49
22647;BME280;11490;42.726;23.268;2022-11-12T00:32:06;96583.88;;;9.77;95.14
22647;BME280;11490;42.726;23.268;2022-11-12T00:34:32;96585.09;;;9.68;96.24
22647;BME280;11490;42.726;23.268;2022-11-12T00:36:58;96584.69;;;9.71;96.46
22647;BME280;11490;42.726;23.268;2022-11-12T00:39:24;96570.88;;;9.54;97.21
22647;BME280;11490;42.726;23.268;2022-11-12T00:41:50;96584.00;;;9.55;97.73
22647;BME280;11490;42.726;23.268;2022-11-12T00:44:15;96574.31;;;9.48;98.26
22647;BME280;11490;42.726;23.268;2022-11-12T00:46:40;96559.84;;;9.57;98.69
22647;BME280;11490;42.726;23.268;2022-11-12T00:49:06;96571.97;;;9.66;98.06
22647;BME280;11490;42.726;23.268;2022-11-12T00:51:33;96567.47;;;9.32;99.85
22647;BME280;11490;42.726;23.268;2022-11-12T00:53:59;96563.59;;;9.28;100.00
22647;BME280;11490;42.726;23.268;2022-11-12T00:56:24;96567.31;;;9.40;100.00
22647;BME280;11490;42.726;23.268;2022-11-12T00:58:49;96563.94;;;9.59;100.00
22647;BME280;11490;42.726;23.268;2022-11-12T01:01:15;96543.13;;;9.35;99.50
22647;BME280;11490;42.726;23.268;2022-11-12T01:03:41;96546.59;;;9.29;100.00
22647;BME280;11490;42.726;23.268;2022-11-12T01:06:18;96534.53;;;9.33;100.00
22647;BME280;11490;42.726;23.268;2022-11-12T01:08:44;96558.47;;;9.68;100.00
22647;BME280;11490;42.726;23.268;2022-11-12T01:11:15;96555.97;;;9.59;98.50
22647;BME280;11490;42.726;23.268;2022-11-12T01:13:42;96560.88;;;9.62;99.16
22647;BME280;11490;42.726;23.268;2022-11-12T01:16:14;96561.56;;;9.78;98.52
22647;BME280;11490;42.726;23.268;2022-11-12T01:18:40;96554.81;;;9.82;98.08
22647;BME280;11490;42.726;23.268;2022-11-12T01:21:07;96555.66;;;9.89;97.21
22647;BME280;11490;42.726;23.268;2022-11-12T01:23:36;96555.66;;;9.82;97.01
22647;BME280;11490;42.726;23.268;2022-11-12T01:26:14;96557.25;;;9.77;98.03
22647;BME280;11490;42.726;23.268;2022-11-12T01:28:40;96545.75;;;9.70;98.20
22647;BME280;11490;42.726;23.268;2022-11-12T01:31:11;96554.31;;;9.58;99.12
22647;BME280;11490;42.726;23.268;2022-11-12T01:33:38;96547.72;;;9.54;100.00
22647;BME280;11490;42.726;23.268;2022-11-12T01:36:04;96542.88;;;9.71;100.00
22647;BME280;11490;42.726;23.268;2022-11-12T01:38:36;96546.22;;;9.86;99.91
22647;BME280;11490;42.726;23.268;2022-11-12T01:41:02;96546.66;;;9.90;98.70
22647;BME280;11490;42.726;23.268;2022-11-12T01:43:28;96526.41;;;9.54;99.56
22647;BME280;11490;42.726;23.268;2022-11-12T01:45:54;96525.03;;;9.65;100.00
22647;BME280;11490;42.726;23.268;2022-11-12T01:48:25;96539.84;;;9.81;100.00
22647;BME280;11490;42.726;23.268;2022-11-12T01:50:52;96528.56;;;9.85;99.35
22647;BME280;11490;42.726;23.268;2022-11-12T01:53:20;96533.53;;;9.88;99.01
22647;BME280;11490;42.726;23.268;2022-11-12T01:55:48;96535.56;;;9.93;99.07
22647;BME280;11490;42.726;23.268;2022-11-12T01:58:14;96536.38;;;9.87;99.00
22647;BME280;11490;42.726;23.268;2022-11-12T02:00:40;96532.25;;;9.78;99.22
22647;BME280;11490;42.726;23.268;2022-11-12T02:03:09;96515.44;;;9.84;100.00
22647;BME280;11490;42.726;23.268;2022-11-12T02:05:38;96528.41;;;9.93;99.04
22647;BME280;11490;42.726;23.268;2022-11-12T02:08:05;96525.31;;;9.90;99.04
22647;BME280;11490;42.726;23.268;2022-11-12T02:10:34;96536.66;;;10.05;98.88
22647;BME280;11490;42.726;23.268;2022-11-12T02:13:00;96527.00;;;10.04;98.34
22647;BME280;11490;42.726;23.268;2022-11-12T02:15:44;96522.78;;;9.69;99.95
22647;BME280;11490;42.726;23.268;2022-11-12T02:18:10;96538.03;;;9.88;99.34
22647;BME280;11490;42.726;23.268;2022-11-12T02:20:37;96536.34;;;9.80;98.84
22647;BME280;11490;42.726;23.268;2022-11-12T02:23:04;96537.19;;;9.81;100.00
22647;BME280;11490;42.726;23.268;2022-11-12T02:25:30;96551.38;;;9.94;99.17
22647;BME280;11490;42.726;23.268;2022-11-12T02:27:57;96543.75;;;9.91;99.13
22647;BME280;11490;42.726;23.268;2022-11-12T02:30:34;96531.59;;;9.76;99.65
22647;BME280;11490;42.726;23.268;2022-11-12T02:33:00;96530.59;;;9.77;100.00
22647;BME280;11490;42.726;23.268;2022-11-12T02:35:26;96518.28;;;9.76;100.00
22647;BME280;11490;42.726;23.268;2022-11-12T02:37:51;96529.75;;;9.70;99.90
22647;BME280;11490;42.726;23.268;2022-11-12T02:40:17;96514.91;;;9.47;100.00
22647;BME280;11490;42.726;23.268;2022-11-12T02:42:43;96514.13;;;9.53;100.00
22647;BME280;11490;42.726;23.268;2022-11-12T02:45:09;96529.19;;;9.81;100.00
22647;BME280;11490;42.726;23.268;2022-11-12T02:47:35;96537.56;;;9.78;100.00
22647;BME280;11490;42.726;23.268;2022-11-12T02:50:00;96520.06;;;9.55;99.98
22647;BME280;11490;42.726;23.268;2022-11-12T02:52:26;96525.63;;;9.60;99.51
22647;BME280;11490;42.726;23.268;2022-11-12T02:54:51;96521.56;;;9.71;99.21
22647;BME280;11490;42.726;23.268;2022-11-12T02:57:17;96519.16;;;9.83;98.76
22647;BME280;11490;42.726;23.268;2022-11-12T02:59:42;96533.53;;;9.95;98.48
22647;BME280;11490;42.726;23.268;2022-11-12T03:02:07;96525.16;;;9.98;98.15
22647;BME280;11490;42.726;23.268;2022-11-12T03:04:33;96533.72;;;9.87;98.35
22647;BME280;11490;42.726;23.268;2022-11-12T03:06:58;96527.81;;;9.98;98.52
22647;BME280;11490;42.726;23.268;2022-11-12T03:09:23;96520.59;;;9.92;98.33
22647;BME280;11490;42.726;23.268;2022-11-12T03:11:49;96518.16;;;9.97;97.75
22647;BME280;11490;42.726;23.268;2022-11-12T03:14:14;96529.41;;;9.86;98.58
22647;BME280;11490;42.726;23.268;2022-11-12T03:16:40;96532.06;;;9.86;97.41
22647;BME280;11490;42.726;23.268;2022-11-12T03:19:05;96535.75;;;9.91;97.95
22647;BME280;11490;42.726;23.268;2022-11-12T03:21:31;96533.31;;;9.90;97.32
22647;BME280;11490;42.726;23.268;2022-11-12T03:23:56;96533.50;;;9.82;96.67
22647;BME280;11490;42.726;23.268;2022-11-12T03:26:21;96528.50;;;9.59;97.29
22647;BME280;11490;42.726;23.268;2022-11-12T03:28:47;96524.81;;;9.19;98.67
22647;BME280;11490;42.726;23.268;2022-11-12T03:31:12;96535.97;;;9.01;99.30
22647;BME280;11490;42.726;23.268;2022-11-12T03:33:37;96531.78;;;8.85;97.64
22647;BME280;11490;42.726;23.268;2022-11-12T03:36:03;96513.28;;;9.05;97.74
22647;BME280;11490;42.726;23.268;2022-11-12T03:38:29;96534.81;;;9.10;95.12
22647;BME280;11490;42.726;23.268;2022-11-12T03:40:54;96531.69;;;9.07;94.94
22647;BME280;11490;42.726;23.268;2022-11-12T03:43:20;96537.94;;;9.20;94.90
22647;BME280;11490;42.726;23.268;2022-11-12T03:45:45;96539.38;;;9.23;94.25
22647;BME280;11490;42.726;23.268;2022-11-12T03:48:11;96547.13;;;9.18;93.60
22647;BME280;11490;42.726;23.268;2022-11-12T03:50:36;96538.84;;;9.06;95.01
22647;BME280;11490;42.726;23.268;2022-11-12T03:53:02;96538.00;;;8.99;95.49
22647;BME280;11490;42.726;23.268;2022-11-12T03:55:29;96532.28;;;9.02;95.04
22647;BME280;11490;42.726;23.268;2022-11-12T03:57:55;96533.28;;;8.95;95.39
22647;BME280;11490;42.726;23.268;2022-11-12T04:00:22;96531.84;;;8.99;95.52
22647;BME280;11490;42.726;23.268;2022-11-12T04:02:49;96527.91;;;8.88;95.86
22647;BME280;11490;42.726;23.268;2022-11-12T04:05:15;96544.63;;;9.10;94.46
22647;BME280;11490;42.726;23.268;2022-11-12T04:08:02;96534.31;;;9.00;94.13
22647;BME280;11490;42.726;23.268;2022-11-12T04:10:46;96519.47;;;8.84;93.03
22647;BME280;11490;42.726;23.268;2022-11-12T04:13:12;96494.81;;;8.69;93.08
22647;BME280;11490;42.726;23.268;2022-11-12T04:16:05;96517.31;;;8.95;92.76
22647;BME280;11490;42.726;23.268;2022-11-12T04:18:51;96528.44;;;9.05;91.80
22647;BME280;11490;42.726;23.268;2022-11-12T04:21:44;96531.09;;;9.05;90.89
22647;BME280;11490;42.726;23.268;2022-11-12T04:24:36;96524.72;;;8.71;92.74
22647;BME280;11490;42.726;23.268;2022-11-12T04:27:31;96526.66;;;8.56;91.68
22647;BME280;11490;42.726;23.268;2022-11-12T04:29:57;96512.72;;;8.54;92.85
22647;BME280;11490;42.726;23.268;2022-11-12T04:32:51;96528.94;;;8.59;92.19
22647;BME280;11490;42.726;23.268;2022-11-12T04:35:20;96516.16;;;8.48;92.59
22647;BME280;11490;42.726;23.268;2022-11-12T04:37:46;96519.31;;;8.16;94.24
22647;BME280;11490;42.726;23.268;2022-11-12T04:40:17;96519.06;;;8.10;94.90
22647;BME280;11490;42.726;23.268;2022-11-12T04:43:03;96522.09;;;8.07;94.99
22647;BME280;11490;42.726;23.268;2022-11-12T04:45:50;96515.63;;;8.17;93.17
22647;BME280;11490;42.726;23.268;2022-11-12T04:48:17;96499.88;;;8.15;92.63
22647;BME280;11490;42.726;23.268;2022-11-12T04:50:44;96521.53;;;8.12;92.35
22647;BME280;11490;42.726;23.268;2022-11-12T04:53:11;96523.38;;;8.11;93.98
22647;BME280;11490;42.726;23.268;2022-11-12T04:55:37;96521.19;;;8.00;94.18
22647;BME280;11490;42.726;23.268;2022-11-12T04:58:02;96526.50;;;8.00;95.82
22647;BME280;11490;42.726;23.268;2022-11-12T05:00:28;96520.94;;;8.17;95.94
22647;BME280;11490;42.726;23.268;2022-11-12T05:02:53;96535.25;;;8.16;95.63
22647;BME280;11490;42.726;23.268;2022-11-12T05:05:19;96523.72;;;8.08;95.07
22647;BME280;11490;42.726;23.268;2022-11-12T05:07:44;96527.41;;;8.07;95.28
22647;BME280;11490;42.726;23.268;2022-11-12T05:10:10;96528.16;;;8.23;94.77
22647;BME280;11490;42.726;23.268;2022-11-12T05:12:35;96532.69;;;8.29;94.03
22647;BME280;11490;42.726;23.268;2022-11-12T05:15:01;96538.09;;;8.14;92.74
22647;BME280;11490;42.726;23.268;2022-11-12T05:17:27;96540.69;;;8.29;92.50
22647;BME280;11490;42.726;23.268;2022-11-12T05:19:52;96541.72;;;8.28;92.33
22647;BME280;11490;42.726;23.268;2022-11-12T05:22:18;96544.28;;;8.00;92.67
22647;BME280;11490;42.726;23.268;2022-11-12T05:24:43;96544.75;;;8.03;93.51
22647;BME280;11490;42.726;23.268;2022-11-12T05:27:14;96549.53;;;8.15;94.10
22647;BME280;11490;42.726;23.268;2022-11-12T05:29:43;96551.66;;;8.19;94.10
22647;BME280;11490;42.726;23.268;2022-11-12T05:32:14;96555.34;;;8.39;94.11
22647;BME280;11490;42.726;23.268;2022-11-12T05:34:40;96560.47;;;8.41;94.27
22647;BME280;11490;42.726;23.268;2022-11-12T05:37:07;96560.53;;;8.47;93.33
22647;BME280;11490;42.726;23.268;2022-11-12T05:39:32;96564.88;;;8.55;93.87
22647;BME280;11490;42.726;23.268;2022-11-12T05:41:59;96535.97;;;8.45;94.19
22647;BME280;11490;42.726;23.268;2022-11-12T05:44:25;96551.09;;;8.66;94.08
22647;BME280;11490;42.726;23.268;2022-11-12T05:46:50;96538.97;;;8.64;92.96
22647;BME280;11490;42.726;23.268;2022-11-12T05:49:16;96521.69;;;8.53;92.34
22647;BME280;11490;42.726;23.268;2022-11-12T05:51:42;96560.81;;;8.80;92.46
22647;BME280;11490;42.726;23.268;2022-11-12T05:54:08;96569.41;;;8.82;91.49
22647;BME280;11490;42.726;23.268;2022-11-12T05:56:34;96558.19;;;8.87;91.82
22647;BME280;11490;42.726;23.268;2022-11-12T05:59:02;96580.56;;;8.99;91.24
22647;BME280;11490;42.726;23.268;2022-11-12T06:01:28;96583.50;;;8.55;92.23
22647;BME280;11490;42.726;23.268;2022-11-12T06:03:54;96570.72;;;8.44;92.90
22647;BME280;11490;42.726;23.268;2022-11-12T06:06:20;96557.56;;;8.36;93.14
22647;BME280;11490;42.726;23.268;2022-11-12T06:08:45;96572.50;;;8.22;94.07
22647;BME280;11490;42.726;23.268;2022-11-12T06:11:10;96580.72;;;8.42;93.98
22647;BME280;11490;42.726;23.268;2022-11-12T06:13:36;96580.84;;;8.34;94.39
22647;BME280;11490;42.726;23.268;2022-11-12T06:16:01;96568.25;;;8.42;94.57
22647;BME280;11490;42.726;23.268;2022-11-12T06:18:27;96585.25;;;8.69;93.48
22647;BME280;11490;42.726;23.268;2022-11-12T06:20:52;96589.53;;;8.92;92.67
22647;BME280;11490;42.726;23.268;2022-11-12T06:23:36;96586.75;;;9.06;92.00
22647;BME280;11490;42.726;23.268;2022-11-12T06:26:02;96576.63;;;9.23;91.76
22647;BME280;11490;42.726;23.268;2022-11-12T06:28:28;96581.16;;;9.57;90.75
22647;BME280;11490;42.726;23.268;2022-11-12T06:30:53;96581.47;;;9.82;89.33
22647;BME280;11490;42.726;23.268;2022-11-12T06:33:19;96556.00;;;9.73;88.21
22647;BME280;11490;42.726;23.268;2022-11-12T06:35:45;96573.72;;;10.00;87.52
22647;BME280;11490;42.726;23.268;2022-11-12T06:38:10;96576.84;;;10.10;87.04
22647;BME280;11490;42.726;23.268;2022-11-12T06:40:35;96572.13;;;10.12;86.00
22647;BME280;11490;42.726;23.268;2022-11-12T06:43:01;96574.59;;;10.14;86.34
22647;BME280;11490;42.726;23.268;2022-11-12T06:45:26;96571.91;;;10.07;85.19
22647;BME280;11490;42.726;23.268;2022-11-12T06:47:56;96583.84;;;10.18;85.05
22647;BME280;11490;42.726;23.268;2022-11-12T06:50:22;96585.66;;;10.11;84.11
22647;BME280;11490;42.726;23.268;2022-11-12T06:52:47;96599.19;;;10.16;83.21
22647;BME280;11490;42.726;23.268;2022-11-12T06:55:13;96597.53;;;10.08;82.43
22647;BME280;11490;42.726;23.268;2022-11-12T06:57:38;96586.41;;;9.91;82.63
22647;BME280;11490;42.726;23.268;2022-11-12T07:00:05;96583.59;;;10.06;81.47
22647;BME280;11490;42.726;23.268;2022-11-12T07:02:31;96577.84;;;10.09;79.87
22647;BME280;11490;42.726;23.268;2022-11-12T07:04:56;96578.69;;;10.16;79.26
22647;BME280;11490;42.726;23.268;2022-11-12T07:07:22;96598.03;;;10.31;79.93
22647;BME280;11490;42.726;23.268;2022-11-12T07:09:47;96586.97;;;10.34;79.50
22647;BME280;11490;42.726;23.268;2022-11-12T07:12:12;96592.75;;;10.45;78.60
22647;BME280;11490;42.726;23.268;2022-11-12T07:14:38;96589.25;;;10.44;78.92
22647;BME280;11490;42.726;23.268;2022-11-12T07:17:03;96592.34;;;10.61;79.29
22647;BME280;11490;42.726;23.268;2022-11-12T07:19:29;96588.25;;;10.52;79.26
22647;BME280;11490;42.726;23.268;2022-11-12T07:21:54;96577.53;;;10.38;79.13
22647;BME280;11490;42.726;23.268;2022-11-12T07:24:20;96589.06;;;10.72;79.15
22647;BME280;11490;42.726;23.268;2022-11-12T07:26:45;96582.09;;;10.58;78.85
22647;BME280;11490;42.726;23.268;2022-11-12T07:29:10;96554.38;;;10.46;78.93
22647;BME280;11490;42.726;23.268;2022-11-12T07:31:36;96585.97;;;10.62;78.95
22647;BME280;11490;42.726;23.268;2022-11-12T07:34:01;96581.06;;;10.72;78.59
22647;BME280;11490;42.726;23.268;2022-11-12T07:36:27;96570.59;;;10.77;78.18
22647;BME280;11490;42.726;23.268;2022-11-12T07:38:53;96579.03;;;10.87;77.86
22647;BME280;11490;42.726;23.268;2022-11-12T07:41:23;96565.06;;;10.72;77.75
22647;BME280;11490;42.726;23.268;2022-11-12T07:43:51;96570.78;;;10.56;77.05
22647;BME280;11490;42.726;23.268;2022-11-12T07:46:23;96590.72;;;10.73;76.69
22647;BME280;11490;42.726;23.268;2022-11-12T07:48:49;96587.03;;;10.67;76.83
22647;BME280;11490;42.726;23.268;2022-11-12T07:51:17;96591.13;;;10.70;77.61
22647;BME280;11490;42.726;23.268;2022-11-12T07:53:44;96576.94;;;10.50;77.28
22647;BME280;11490;42.726;23.268;2022-11-12T07:56:11;96588.25;;;10.65;77.27
22647;BME280;11490;42.726;23.268;2022-11-12T07:58:37;96584.75;;;10.58;77.28
22647;BME280;11490;42.726;23.268;2022-11-12T08:03:35;96593.59;;;10.65;77.03
22647;BME280;11490;42.726;23.268;2022-11-12T08:06:03;96591.50;;;10.40;76.62
22647;BME280;11490;42.726;23.268;2022-11-12T08:08:28;96596.03;;;10.47;77.38
22647;BME280;11490;42.726;23.268;2022-11-12T08:10:55;96570.59;;;10.44;77.25
22647;BME280;11490;42.726;23.268;2022-11-12T08:13:20;96561.13;;;10.28;76.97
22647;BME280;11490;42.726;23.268;2022-11-12T08:15:46;96588.25;;;10.58;77.21
22647;BME280;11490;42.726;23.268;2022-11-12T08:18:13;96611.44;;;10.77;76.75
22647;BME280;11490;42.726;23.268;2022-11-12T08:20:38;96614.50;;;10.55;76.53
22647;BME280;11490;42.726;23.268;2022-11-12T08:23:03;96589.47;;;10.56;76.80
22647;BME280;11490;42.726;23.268;2022-11-12T08:25:29;96617.63;;;10.78;76.03
22647;BME280;11490;42.726;23.268;2022-11-12T08:27:58;96599.13;;;10.70;76.32
22647;BME280;11490;42.726;23.268;2022-11-12T08:30:25;96598.72;;;10.79;75.51
22647;BME280;11490;42.726;23.268;2022-11-12T08:32:56;96578.81;;;10.69;75.62
22647;BME280;11490;42.726;23.268;2022-11-12T08:35:21;96561.97;;;10.49;75.32
22647;BME280;11490;42.726;23.268;2022-11-12T08:37:47;96609.59;;;10.78;75.14
22647;BME280;11490;42.726;23.268;2022-11-12T08:40:12;96593.97;;;10.49;74.87
22647;BME280;11490;42.726;23.268;2022-11-12T08:42:38;96565.44;;;10.29;75.00
22647;BME280;11490;42.726;23.268;2022-11-12T08:45:04;96606.72;;;10.60;75.76
22647;BME280;11490;42.726;23.268;2022-11-12T08:47:29;96619.44;;;10.58;76.44
22647;BME280;11490;42.726;23.268;2022-11-12T08:49:54;96571.38;;;10.25;75.27
22647;BME280;11490;42.726;23.268;2022-11-12T08:52:20;96615.31;;;10.49;76.02
22647;BME280;11490;42.726;23.268;2022-11-12T08:54:45;96612.06;;;10.60;76.25
22647;BME280;11490;42.726;23.268;2022-11-12T08:57:12;96591.41;;;10.14;74.96
22647;BME280;11490;42.726;23.268;2022-11-12T08:59:37;96583.19;;;10.16;75.61
22647;BME280;11490;42.726;23.268;2022-11-12T09:02:03;96605.84;;;10.26;75.98
22647;BME280;11490;42.726;23.268;2022-11-12T09:04:30;96577.97;;;10.35;75.02
22647;BME280;11490;42.726;23.268;2022-11-12T09:06:55;96574.81;;;10.12;74.60
22647;BME280;11490;42.726;23.268;2022-11-12T09:09:21;96591.28;;;10.29;75.48
22647;BME280;11490;42.726;23.268;2022-11-12T09:11:46;96580.19;;;10.25;74.99
22647;BME280;11490;42.726;23.268;2022-11-12T09:14:11;96596.38;;;10.24;74.55
22647;BME280;11490;42.726;23.268;2022-11-12T09:16:37;96618.59;;;10.44;74.96
22647;BME280;11490;42.726;23.268;2022-11-12T09:19:08;96549.16;;;10.11;75.13
22647;BME280;11490;42.726;23.268;2022-11-12T09:21:37;96566.47;;;10.28;74.60
22647;BME280;11490;42.726;23.268;2022-11-12T09:24:02;96584.13;;;10.43;74.63
22647;BME280;11490;42.726;23.268;2022-11-12T09:26:28;96608.75;;;10.45;74.24
22647;BME280;11490;42.726;23.268;2022-11-12T09:28:53;96567.91;;;10.37;74.62
22647;BME280;11490;42.726;23.268;2022-11-12T09:31:19;96573.84;;;10.33;73.58
22647;BME280;11490;42.726;23.268;2022-11-12T09:33:45;96564.56;;;10.22;73.97
22647;BME280;11490;42.726;23.268;2022-11-12T09:36:10;96560.69;;;10.25;74.42
22647;BME280;11490;42.726;23.268;2022-11-12T09:38:36;96592.34;;;10.48;74.11
22647;BME280;11490;42.726;23.268;2022-11-12T09:41:18;96568.06;;;10.23;75.87
22647;BME280;11490;42.726;23.268;2022-11-12T09:43:53;96591.38;;;10.08;75.64
22647;BME280;11490;42.726;23.268;2022-11-12T09:46:26;96605.03;;;10.32;76.33
22647;BME280;11490;42.726;23.268;2022-11-12T09:49:03;96575.00;;;10.11;76.36
22647;BME280;11490;42.726;23.268;2022-11-12T09:51:40;96586.13;;;10.21;76.52
22647;BME280;11490;42.726;23.268;2022-11-12T09:54:27;96591.47;;;10.21;76.24
22647;BME280;11490;42.726;23.268;2022-11-12T09:56:53;96551.09;;;9.76;76.88
22647;BME280;11490;42.726;23.268;2022-11-12T09:59:19;96600.44;;;10.13;76.17
22647;BME280;11490;42.726;23.268;2022-11-12T10:10:41;96609.59;;;10.85;74.77
22647;BME280;11490;42.726;23.268;2022-11-12T10:16:19;96610.03;;;10.88;74.55
22647;BME280;11490;42.726;23.268;2022-11-12T10:24:36;96607.53;;;10.54;76.87
22647;BME280;11490;42.726;23.268;2022-11-12T10:27:15;96612.47;;;10.70;76.76
22647;BME280;11490;42.726;23.268;2022-11-12T10:29:55;96606.69;;;10.47;77.38
22647;BME280;11490;42.726;23.268;2022-11-12T10:32:23;96586.59;;;10.57;77.43
22647;BME280;11490;42.726;23.268;2022-11-12T10:34:49;96587.00;;;10.48;77.00
22647;BME280;11490;42.726;23.268;2022-11-12T10:37:39;96579.13;;;10.13;77.97
22647;BME280;11490;42.726;23.268;2022-11-12T10:40:30;96607.69;;;10.32;79.52
22647;BME280;11490;42.726;23.268;2022-11-12T10:45:28;96602.59;;;10.37;80.96
22647;BME280;11490;42.726;23.268;2022-11-12T10:47:53;96569.31;;;10.20;81.46
22647;BME280;11490;42.726;23.268;2022-11-12T10:52:57;96602.97;;;10.34;81.08
22647;BME280;11490;42.726;23.268;2022-11-12T10:55:35;96599.69;;;10.46;80.49
22647;BME280;11490;42.726;23.268;2022-11-12T11:00:37;96543.81;;;10.04;80.13
22647;BME280;11490;42.726;23.268;2022-11-12T11:03:20;96613.91;;;10.53;80.08
22647;BME280;11490;42.726;23.268;2022-11-12T11:08:41;96567.88;;;10.24;79.92
22647;BME280;11490;42.726;23.268;2022-11-12T11:13:38;96593.59;;;10.45;79.35
22647;BME280;11490;42.726;23.268;2022-11-12T11:16:06;96600.16;;;10.62;79.63
22647;BME280;11490;42.726;23.268;2022-11-12T11:18:34;96588.03;;;10.53;79.12
22647;BME280;11490;42.726;23.268;2022-11-12T11:21:24;96606.69;;;10.47;79.45
22647;BME280;11490;42.726;23.268;2022-11-12T11:26:24;96591.50;;;10.47;79.56
22647;BME280;11490;42.726;23.268;2022-11-12T11:29:03;96585.34;;;10.47;79.63
22647;BME280;11490;42.726;23.268;2022-11-12T11:31:52;96583.50;;;10.40;79.27
22647;BME280;11490;42.726;23.268;2022-11-12T11:37:21;96583.69;;;10.32;80.43
22647;BME280;11490;42.726;23.268;2022-11-12T11:56:27;96607.81;;;10.11;82.77
22647;BME280;11490;42.726;23.268;2022-11-12T12:07:06;96592.19;;;10.08;82.67
22647;BME280;11490;42.726;23.268;2022-11-12T12:09:44;96552.75;;;9.84;82.17
22647;BME280;11490;42.726;23.268;2022-11-12T12:15:29;96543.56;;;9.93;81.54
22647;BME280;11490;42.726;23.268;2022-11-12T12:18:36;96551.63;;;10.06;81.70
22647;BME280;11490;42.726;23.268;2022-11-12T12:21:16;96583.69;;;10.26;81.17
22647;BME280;11490;42.726;23.268;2022-11-12T12:23:55;96573.22;;;10.24;80.87
22647;BME280;11490;42.726;23.268;2022-11-12T12:26:36;96583.31;;;10.49;80.66
22647;BME280;11490;42.726;23.268;2022-11-12T12:29:15;96582.47;;;10.41;78.96
22647;BME280;11490;42.726;23.268;2022-11-12T12:32:00;96552.94;;;10.36;78.75
22647;BME280;11490;42.726;23.268;2022-11-12T12:34:30;96577.16;;;10.41;78.72
22647;BME280;11490;42.726;23.268;2022-11-12T12:37:11;96556.31;;;9.97;78.90
22647;BME280;11490;42.726;23.268;2022-11-12T12:45:58;96508.53;;;10.02;79.03
22647;BME280;11490;42.726;23.268;2022-11-12T12:52:14;96585.16;;;10.41;78.97
22647;BME280;11490;42.726;23.268;2022-11-12T12:58:24;96518.66;;;10.20;78.57
22647;BME280;11490;42.726;23.268;2022-11-12T13:00:46;96588.00;;;10.47;78.82
22647;BME280;11490;42.726;23.268;2022-11-12T13:03:54;96575.91;;;10.37;80.13
22647;BME280;11490;42.726;23.268;2022-11-12T13:06:22;96589.06;;;10.59;81.33
22647;BME280;11490;42.726;23.268;2022-11-12T13:19:34;96518.81;;;10.12;84.50
22647;BME280;11490;42.726;23.268;2022-11-12T13:30:10;96559.75;;;9.91;88.00
22647;BME280;11490;42.726;23.268;2022-11-12T13:32:59;96531.31;;;9.98;87.68
22647;BME280;11490;42.726;23.268;2022-11-12T13:35:37;96497.72;;;9.43;88.81
22647;BME280;11490;42.726;23.268;2022-11-12T13:49:17;96590.47;;;9.81;90.80
22647;BME280;11490;42.726;23.268;2022-11-12T13:53:48;96572.50;;;10.02;90.50
22647;BME280;11490;42.726;23.268;2022-11-12T13:56:25;96548.28;;;9.91;89.12
22647;BME280;11490;42.726;23.268;2022-11-12T13:58:52;96559.19;;;9.48;89.95
22647;BME280;11490;42.726;23.268;2022-11-12T14:01:19;96594.63;;;9.90;90.93
22647;BME280;11490;42.726;23.268;2022-11-12T14:03:48;96550.47;;;9.68;90.32
22647;BME280;11490;42.726;23.268;2022-11-12T14:06:18;96594.28;;;10.13;89.65
22647;BME280;11490;42.726;23.268;2022-11-12T14:09:04;96532.16;;;9.51;89.92
22647;BME280;11490;42.726;23.268;2022-11-12T14:14:28;96593.41;;;9.99;90.34
22647;BME280;11490;42.726;23.268;2022-11-12T14:17:11;96586.53;;;10.18;90.67
22647;BME280;11490;42.726;23.268;2022-11-12T14:22:39;96573.44;;;10.29;90.01
22647;BME280;11490;42.726;23.268;2022-11-12T14:27:46;96551.78;;;9.98;89.33
22647;BME280;11490;42.726;23.268;2022-11-12T14:30:21;96566.34;;;10.02;89.61
22647;BME280;11490;42.726;23.268;2022-11-12T14:33:09;96589.44;;;10.29;90.47
22647;BME280;11490;42.726;23.268;2022-11-12T14:35:38;96557.72;;;10.00;89.38
22647;BME280;11490;42.726;23.268;2022-11-12T14:40:37;96560.75;;;9.84;90.56
22647;BME280;11490;42.726;23.268;2022-11-12T14:43:37;96583.97;;;9.90;89.58
22647;BME280;11490;42.726;23.268;2022-11-12T14:46:03;96533.41;;;9.62;90.35
22647;BME280;11490;42.726;23.268;2022-11-12T14:48:42;96559.31;;;9.75;91.42
22647;BME280;11490;42.726;23.268;2022-11-12T14:51:10;96543.31;;;9.75;91.10
22647;BME280;11490;42.726;23.268;2022-11-12T14:53:40;96574.53;;;9.94;90.45
22647;BME280;11490;42.726;23.268;2022-11-12T14:56:22;96576.13;;;9.82;90.34
22647;BME280;11490;42.726;23.268;2022-11-12T14:58:51;96538.72;;;9.55;91.41
22647;BME280;11490;42.726;23.268;2022-11-12T15:01:36;96571.22;;;9.92;90.72
22647;BME280;11490;42.726;23.268;2022-11-12T15:04:17;96547.59;;;9.76;90.36
22647;BME280;11490;42.726;23.268;2022-11-12T15:06:51;96548.66;;;9.81;90.54
22647;BME280;11490;42.726;23.268;2022-11-12T15:09:17;96533.50;;;9.82;90.86